Time;durP1;ratioP1;P1;durP2;ratioP2;P2;SDS_P1;SDS_P2;PMS_P1;PMS_P2;Temp;Humidity;BMP_temperature;BMP_pressure;BME280_temperature;BME280_humidity;BME280_pressure;Samples;Min_cycle;Max_cycle;Signal;HPM_P1;HPM_P2
2021/12/08 00:01:22;;;;;;;8.05;1.70;;;4.40;99.90;;;4.62;100.00;98476.03;5036129;28;20083;-81
2021/12/08 00:03:58;;;;;;;4.32;1.50;;;4.50;99.90;;;4.65;100.00;98465.03;5036335;28;20037;-79
2021/12/08 00:06:24;;;;;;;10.82;2.28;;;4.40;99.90;;;4.59;100.00;98424.25;5036293;28;20033;-80
2021/12/08 00:09:18;;;;;;;6.68;1.67;;;4.40;99.90;;;4.52;100.00;98421.38;5035515;28;20037;-81
2021/12/08 00:14:33;;;;;;;6.03;1.73;;;4.30;99.90;;;4.52;100.00;98419.41;5037097;28;20060;-79
2021/12/08 00:16:59;;;;;;;8.20;1.70;;;4.30;99.90;;;4.61;100.00;98414.41;5037022;28;20034;-80
2021/12/08 00:19:27;;;;;;;6.22;1.80;;;4.30;99.90;;;4.49;100.00;98411.06;5035822;28;20052;-80
2021/12/08 00:21:53;;;;;;;10.55;2.42;;;4.20;99.90;;;4.51;100.00;98394.91;5044597;28;20033;-79
2021/12/08 00:24:19;;;;;;;3.92;1.45;;;4.30;99.90;;;4.50;100.00;98402.38;5058878;28;20416;-80
2021/12/08 00:26:45;;;;;;;6.05;1.67;;;4.30;99.90;;;4.53;100.00;98398.88;5061077;28;20036;-80
2021/12/08 00:29:11;;;;;;;6.20;2.45;;;4.30;99.90;;;4.60;100.00;98395.41;5060975;28;20047;-79
2021/12/08 00:31:41;;;;;;;7.47;2.15;;;4.30;99.90;;;4.62;100.00;98393.88;5058947;28;20044;-80
2021/12/08 00:34:06;;;;;;;5.75;1.90;;;4.30;99.90;;;4.64;100.00;98401.81;5058070;28;20052;-80
2021/12/08 00:36:41;;;;;;;4.20;1.55;;;4.30;99.90;;;4.68;100.00;98408.19;5059431;28;20049;-80
2021/12/08 00:39:14;;;;;;;3.30;1.50;;;4.40;99.90;;;4.72;100.00;98412.59;5061206;28;20021;-79
2021/12/08 00:41:41;;;;;;;5.63;1.80;;;4.40;99.90;;;4.82;100.00;98400.06;5061568;28;20408;-79
2021/12/08 00:44:10;;;;;;;3.85;1.38;;;4.50;99.90;;;4.83;100.00;98387.06;5060833;28;20469;-80
2021/12/08 00:46:37;;;;;;;5.55;1.80;;;4.60;99.90;;;4.80;100.00;98388.59;5059421;28;20033;-79
2021/12/08 00:49:09;;;;;;;2.97;1.73;;;4.60;99.90;;;4.89;100.00;98393.84;5059308;28;20051;-79
2021/12/08 00:51:35;;;;;;;3.83;1.75;;;4.60;99.90;;;4.90;99.93;98398.22;5060371;28;20017;-80
2021/12/08 00:54:04;;;;;;;4.95;1.67;;;4.60;99.90;;;4.89;99.92;98402.13;5058828;28;20096;-82
2021/12/08 00:56:30;;;;;;;2.38;1.52;;;4.60;99.90;;;4.87;100.00;98394.22;5060133;28;20439;-79
2021/12/08 00:58:58;;;;;;;6.35;1.80;;;4.60;99.90;;;4.86;100.00;98398.16;5058798;28;20496;-78
2021/12/08 01:01:26;;;;;;;6.45;1.88;;;4.60;99.90;;;4.95;100.00;98397.88;5058649;28;20036;-82
2021/12/08 01:03:52;;;;;;;5.72;1.83;;;4.60;99.90;;;4.89;100.00;98410.44;5061303;28;20056;-81
2021/12/08 01:06:24;;;;;;;6.13;1.83;;;4.70;99.90;;;4.94;100.00;98424.75;5063315;28;20032;-80
2021/12/08 01:08:52;;;;;;;3.35;1.60;;;4.70;99.90;;;4.93;100.00;98414.84;5071105;28;20378;-80
2021/12/08 01:11:20;;;;;;;8.25;1.50;;;4.70;99.90;;;4.91;100.00;98414.44;5063605;28;20040;-80
2021/12/08 01:13:51;;;;;;;5.25;1.70;;;4.60;99.90;;;4.95;100.00;98420.81;5063190;28;20028;-80
2021/12/08 01:16:22;;;;;;;3.38;1.98;;;4.60;99.90;;;4.91;100.00;98417.22;5060025;28;20452;-81
2021/12/08 01:18:48;;;;;;;4.35;1.35;;;4.60;99.90;;;4.92;100.00;98423.53;5058893;28;20029;-78
2021/12/08 01:21:14;;;;;;;4.90;1.92;;;4.60;99.90;;;4.98;100.00;98428.34;5059707;28;20036;-80
2021/12/08 01:23:41;;;;;;;4.95;1.85;;;4.60;99.90;;;4.94;100.00;98413.69;5058834;28;20029;-81
2021/12/08 01:26:10;;;;;;;4.80;1.77;;;4.60;99.90;;;4.87;100.00;98410.81;5059061;28;20029;-81
2021/12/08 01:28:37;;;;;;;5.03;2.28;;;4.60;99.90;;;4.93;100.00;98414.84;5057250;28;20063;-82
2021/12/08 01:31:04;;;;;;;2.58;1.30;;;4.60;99.90;;;4.96;100.00;98418.84;5057281;28;20502;-80
2021/12/08 01:33:33;;;;;;;3.38;1.65;;;4.60;99.90;;;4.90;100.00;98420.34;5058004;28;20051;-82
2021/12/08 01:36:04;;;;;;;4.68;1.70;;;4.60;99.90;;;4.89;100.00;98425.06;5057444;28;20055;-79
2021/12/08 01:38:34;;;;;;;3.78;1.65;;;4.60;99.90;;;4.87;100.00;98419.13;5057344;28;20033;-82
2021/12/08 01:41:01;;;;;;;5.15;1.63;;;4.50;99.90;;;4.80;100.00;98427.31;5061340;28;20056;-79
2021/12/08 01:43:39;;;;;;;5.95;1.63;;;4.50;99.90;;;4.75;100.00;98420.13;5061000;28;20024;-80
2021/12/08 01:46:12;;;;;;;3.42;1.80;;;4.50;99.90;;;4.72;100.00;98412.59;5058229;28;20029;-80
2021/12/08 01:48:43;;;;;;;3.78;1.70;;;4.40;99.90;;;4.72;100.00;98407.06;5060866;28;20029;-80
2021/12/08 01:51:17;;;;;;;2.72;1.50;;;4.40;99.90;;;4.64;100.00;98390.75;5059157;28;20086;-80
2021/12/08 01:53:54;;;;;;;3.65;1.90;;;4.40;99.90;;;4.62;100.00;98396.63;5055426;28;20111;-79
2021/12/08 01:56:24;;;;;;;3.95;1.52;;;4.30;99.90;;;4.58;100.00;98412.38;5058061;28;20562;-78
2021/12/08 01:58:57;;;;;;;2.55;1.52;;;4.30;99.90;;;4.70;100.00;98416.91;5073902;28;20492;-83
2021/12/08 02:01:30;;;;;;;3.08;1.67;;;4.30;99.90;;;4.63;100.00;98417.59;5073199;28;20395;-79
2021/12/08 02:04:04;;;;;;;3.72;1.45;;;4.40;99.90;;;4.75;100.00;98425.66;5057666;28;20391;-77
2021/12/08 02:06:34;;;;;;;4.25;1.77;;;4.40;99.90;;;4.66;100.00;98422.38;5057668;28;20048;-80
2021/12/08 02:09:09;;;;;;;2.85;1.58;;;4.40;99.90;;;4.69;100.00;98429.13;5056354;28;20029;-79
2021/12/08 02:11:39;;;;;;;3.38;1.52;;;4.30;99.90;;;4.70;100.00;98434.28;5057744;28;20021;-79
2021/12/08 02:14:08;;;;;;;6.32;1.42;;;4.40;99.90;;;4.62;100.00;98423.50;5058058;28;20346;-79
2021/12/08 02:16:35;;;;;;;3.95;1.75;;;4.40;99.90;;;4.69;100.00;98421.63;5056398;28;20032;-78
2021/12/08 02:19:07;;;;;;;3.13;1.48;;;4.40;99.90;;;4.75;100.00;98428.44;5057782;28;20032;-79
2021/12/08 02:21:42;;;;;;;3.03;1.30;;;4.40;99.90;;;4.78;100.00;98435.97;5058904;28;20059;-79
2021/12/08 02:24:14;;;;;;;2.53;1.50;;;4.40;99.90;;;4.84;100.00;98435.66;5057147;28;20033;-79
2021/12/08 02:26:45;;;;;;;3.33;1.67;;;4.40;99.90;;;4.75;100.00;98439.47;5056574;28;20052;-80
2021/12/08 02:29:53;;;;;;;4.53;1.73;;;4.50;99.90;;;4.83;100.00;98436.81;5057409;28;20368;-78
2021/12/08 02:48:39;;;;;;;5.57;1.98;;;4.70;99.90;;;5.02;100.00;98433.94;5058493;28;20131;-80
2021/12/08 02:51:05;;;;;;;2.17;1.63;;;4.60;99.90;;;5.06;100.00;98437.56;5057230;28;20024;-79
2021/12/08 02:53:33;;;;;;;5.10;2.22;;;4.70;99.90;;;5.10;100.00;98427.34;5057272;28;20117;-79
2021/12/08 02:55:59;;;;;;;3.92;1.70;;;4.80;99.90;;;5.10;100.00;98427.34;5055523;28;20388;-80
2021/12/08 02:58:25;;;;;;;3.67;1.75;;;4.80;99.90;;;5.14;100.00;98425.41;5056585;28;20452;-80
2021/12/08 03:01:08;;;;;;;3.28;1.65;;;4.80;99.90;;;5.17;100.00;98430.19;5056276;28;20106;-79
2021/12/08 03:03:37;;;;;;;4.00;1.88;;;4.80;99.90;;;5.23;100.00;98437.00;5054372;28;20097;-79
2021/12/08 03:06:05;;;;;;;3.30;1.65;;;4.80;99.90;;;5.23;100.00;98429.47;5054629;28;20029;-79
2021/12/08 03:08:32;;;;;;;4.18;1.70;;;4.90;99.90;;;5.27;100.00;98432.28;5056001;28;20484;-79
2021/12/08 03:11:01;;;;;;;3.00;1.60;;;4.90;99.90;;;5.33;100.00;98448.19;5054425;28;20029;-79
2021/12/08 03:13:41;;;;;;;5.60;1.45;;;5.00;99.90;;;5.36;100.00;98441.13;5055072;28;20029;-78
2021/12/08 03:16:11;;;;;;;3.08;1.77;;;5.00;99.90;;;5.33;100.00;98430.78;5055343;28;20488;-79
2021/12/08 03:18:41;;;;;;;4.20;1.65;;;5.00;99.90;;;5.40;100.00;98441.13;5055496;28;20029;-79
2021/12/08 03:21:10;;;;;;;6.00;1.90;;;5.00;99.90;;;5.43;100.00;98432.88;5051975;28;20022;-80
2021/12/08 03:23:51;;;;;;;5.00;1.65;;;5.10;99.90;;;5.45;100.00;98435.28;5050673;28;20029;-78
2021/12/08 03:26:27;;;;;;;3.40;1.50;;;5.10;99.90;;;5.43;100.00;98443.16;5035838;28;20033;-79
2021/12/08 03:29:18;;;;;;;3.28;1.75;;;5.20;99.90;;;5.49;100.00;98445.19;5036438;28;20021;-81
2021/12/08 03:31:46;;;;;;;5.60;2.17;;;5.20;99.90;;;5.59;100.00;98436.22;5036418;28;20089;-79
2021/12/08 03:34:12;;;;;;;3.20;2.03;;;5.20;99.90;;;5.54;100.00;98444.09;5034051;28;20041;-79
2021/12/08 03:36:39;;;;;;;2.38;1.60;;;5.30;99.90;;;5.68;100.00;98450.56;5036271;28;20029;-79
2021/12/08 03:39:08;;;;;;;4.28;1.88;;;5.20;99.90;;;5.61;100.00;98450.50;5034568;28;20057;-79
2021/12/08 03:41:35;;;;;;;5.00;1.67;;;5.30;99.90;;;5.66;100.00;98452.13;5035424;28;20446;-78
2021/12/08 03:44:06;;;;;;;3.05;1.60;;;5.40;99.90;;;5.76;100.00;98448.69;5034897;28;20116;-79
2021/12/08 03:46:40;;;;;;;2.55;1.40;;;5.40;99.90;;;5.79;100.00;98453.47;5035560;28;20034;-79
2021/12/08 03:49:10;;;;;;;2.72;1.52;;;5.40;99.90;;;5.74;100.00;98462.94;5036539;28;20090;-78
2021/12/08 03:51:39;;;;;;;3.00;1.58;;;5.40;99.90;;;5.79;100.00;98459.81;5033883;28;20129;-78
2021/12/08 03:54:11;;;;;;;2.38;1.67;;;5.40;99.90;;;5.72;100.00;98462.50;5035566;28;20041;-77
2021/12/08 03:56:38;;;;;;;4.00;1.70;;;5.40;99.90;;;5.83;100.00;98474.50;5035250;28;20171;-77
2021/12/08 03:59:07;;;;;;;7.15;1.92;;;5.40;99.90;;;5.79;100.00;98461.78;5033411;28;20033;-79
2021/12/08 04:01:34;;;;;;;4.72;1.92;;;5.40;99.90;;;5.80;100.00;98477.22;5035185;28;20048;-80
2021/12/08 04:04:06;;;;;;;2.70;1.55;;;5.40;99.90;;;5.87;100.00;98471.00;5037042;28;20044;-78
2021/12/08 04:06:49;;;;;;;3.55;1.75;;;5.50;99.90;;;5.79;100.00;98465.34;5034390;28;20025;-78
2021/12/08 04:09:33;;;;;;;4.28;2.13;;;5.30;99.90;;;5.68;100.00;98466.41;5034553;28;20388;-78
2021/12/08 04:12:02;;;;;;;3.72;1.73;;;5.30;99.90;;;5.66;100.00;98468.75;5032727;28;20036;-78
2021/12/08 04:14:37;;;;;;;4.50;1.88;;;5.20;99.90;;;5.64;100.00;98477.44;5033886;28;20036;-78
2021/12/08 04:17:11;;;;;;;4.20;1.42;;;5.20;99.90;;;5.61;100.00;98486.50;5033107;28;20125;-78
2021/12/08 04:19:39;;;;;;;5.15;1.80;;;5.30;99.90;;;5.61;100.00;98489.28;5034367;28;20104;-79
2021/12/08 04:22:28;;;;;;;2.38;1.90;;;5.20;99.90;;;5.64;100.00;98487.72;5044999;28;20029;-78
2021/12/08 04:24:56;;;;;;;5.45;2.03;;;5.20;99.90;;;5.62;100.00;98496.38;5052755;28;20036;-80
2021/12/08 04:27:34;;;;;;;3.88;1.98;;;5.30;99.90;;;5.77;100.00;98505.69;5055414;28;20032;-79
2021/12/08 04:30:07;;;;;;;3.85;1.92;;;5.30;99.90;;;5.78;100.00;98494.22;5054339;28;20212;-80
2021/12/08 04:32:34;;;;;;;6.78;2.00;;;5.30;99.90;;;5.72;100.00;98498.50;5053565;28;20036;-79
2021/12/08 04:35:09;;;;;;;5.07;1.77;;;5.30;99.90;;;5.76;100.00;98502.09;5053143;28;20496;-80
2021/12/08 04:37:46;;;;;;;6.05;1.98;;;5.30;99.90;;;5.81;100.00;98487.91;5053843;28;20032;-78
2021/12/08 04:41:00;;;;;;;5.75;2.25;;;5.40;99.90;;;5.89;100.00;98485.25;5053727;28;20040;-78
2021/12/08 04:43:40;;;;;;;4.72;2.38;;;5.40;99.90;;;5.93;100.00;98486.91;5065383;28;20033;-80
2021/12/08 04:46:23;;;;;;;5.03;2.30;;;5.40;99.90;;;5.89;100.00;98488.81;5053559;28;20492;-77
2021/12/08 05:00:57;;;;;;;6.63;2.40;;;5.40;99.90;;;5.75;100.00;98478.34;5054921;28;20036;-78
2021/12/08 05:06:25;;;;;;;4.93;1.98;;;5.40;99.90;;;5.78;100.00;98491.44;5052777;28;20036;-78
2021/12/08 05:08:57;;;;;;;7.22;2.50;;;5.40;99.90;;;5.72;100.00;98484.66;5052455;28;20511;-78
2021/12/08 05:11:41;;;;;;;7.43;2.63;;;5.30;99.90;;;5.75;100.00;98488.63;5054828;28;20049;-78
2021/12/08 05:14:23;;;;;;;3.85;2.22;;;5.30;99.90;;;5.68;100.00;98489.34;5058601;28;20025;-80
2021/12/08 05:17:01;;;;;;;3.50;2.08;;;5.30;99.90;;;5.64;100.00;98485.75;5057006;28;20025;-77
2021/12/08 05:19:33;;;;;;;6.57;2.40;;;5.30;99.90;;;5.67;100.00;98490.53;5056872;28;20033;-78
2021/12/08 05:22:32;;;;;;;7.03;2.58;;;5.30;99.90;;;5.66;100.00;98497.22;5055695;28;20025;-79
2021/12/08 05:25:07;;;;;;;6.55;2.42;;;5.30;99.90;;;5.69;100.00;98504.78;5057083;28;20029;-79
2021/12/08 05:27:44;;;;;;;7.90;2.85;;;5.20;99.90;;;5.65;100.00;98511.47;5056327;28;20029;-78
2021/12/08 05:30:51;;;;;;;5.75;2.35;;;5.30;99.90;;;5.69;100.00;98510.31;5057440;28;20059;-79
2021/12/08 05:33:18;;;;;;;6.78;2.58;;;5.30;99.90;;;5.64;100.00;98510.66;5057071;28;20029;-80
2021/12/08 05:35:47;;;;;;;7.10;2.60;;;5.30;99.90;;;5.70;100.00;98517.47;5073444;28;20029;-79
2021/12/08 05:38:17;;;;;;;9.35;2.90;;;5.30;99.90;;;5.75;100.00;98521.84;5057900;28;20334;-79
2021/12/08 05:40:59;;;;;;;6.18;2.38;;;5.30;99.90;;;5.69;100.00;98523.38;5057550;28;20036;-79
2021/12/08 05:43:29;;;;;;;7.43;2.55;;;5.20;99.90;;;5.61;100.00;98530.00;5058482;28;20032;-78
2021/12/08 05:46:03;;;;;;;8.13;2.30;;;5.20;99.90;;;5.58;100.00;98536.31;5058751;28;20061;-79
2021/12/08 05:48:32;;;;;;;9.45;3.00;;;5.20;99.90;;;5.71;100.00;98537.66;5059296;28;20116;-79
2021/12/08 05:51:07;;;;;;;4.85;2.25;;;5.20;99.90;;;5.70;100.00;98536.84;5059963;28;20025;-80
2021/12/08 05:53:38;;;;;;;7.93;2.78;;;5.30;99.90;;;5.75;100.00;98538.47;5061510;28;20119;-80
2021/12/08 05:56:08;;;;;;;5.03;2.40;;;5.30;99.90;;;5.83;100.00;98540.19;5060652;28;20033;-77
2021/12/08 05:58:36;;;;;;;7.85;2.33;;;5.40;99.90;;;5.88;100.00;98559.25;5057773;28;20025;-80
2021/12/08 06:01:30;;;;;;;4.88;2.60;;;5.40;99.90;;;5.88;100.00;98545.41;5055862;28;20040;-79
2021/12/08 06:03:59;;;;;;;5.90;2.53;;;5.40;99.90;;;5.91;100.00;98549.41;5055683;28;20039;-79
2021/12/08 06:06:27;;;;;;;6.82;2.80;;;5.40;99.90;;;5.83;100.00;98548.47;5055120;28;20100;-79
2021/12/08 06:08:55;;;;;;;8.88;3.05;;;5.40;99.90;;;5.82;100.00;98544.91;5056466;28;20083;-78
2021/12/08 06:11:25;;;;;;;5.72;2.20;;;5.40;99.90;;;5.85;100.00;98540.59;5055969;28;20025;-78
2021/12/08 06:13:57;;;;;;;6.50;2.30;;;5.40;99.90;;;5.92;100.00;98559.28;5055679;28;20047;-79
2021/12/08 06:16:23;;;;;;;6.13;2.20;;;5.40;99.90;;;5.84;100.00;98553.63;5056450;28;20503;-79
2021/12/08 06:18:51;;;;;;;5.65;2.40;;;5.40;99.90;;;5.88;100.00;98564.00;5056821;28;20025;-80
2021/12/08 06:21:25;;;;;;;9.00;2.50;;;5.40;99.90;;;5.82;100.00;98561.53;5057482;28;20078;-78
2021/12/08 06:23:53;;;;;;;7.22;2.35;;;5.40;99.90;;;5.85;100.00;98551.66;5063626;28;20060;-79
2021/12/08 06:26:25;;;;;;;6.18;2.42;;;5.40;99.90;;;5.75;100.00;98553.13;5060740;28;20033;-80
2021/12/08 06:28:52;;;;;;;9.35;2.80;;;5.30;99.90;;;5.74;100.00;98550.75;5056237;28;20045;-79
2021/12/08 06:31:26;;;;;;;6.07;2.22;;;5.30;99.90;;;5.63;100.00;98553.38;5055545;28;20115;-80
2021/12/08 06:33:53;;;;;;;7.65;2.67;;;5.20;99.90;;;5.56;100.00;98552.47;5055383;28;20028;-79
2021/12/08 06:36:31;;;;;;;8.38;2.80;;;5.10;99.90;;;5.49;100.00;98561.47;5057301;28;20245;-79
2021/12/08 06:38:59;;;;;;;4.50;2.22;;;5.00;99.90;;;5.41;100.00;98562.56;5055729;28;20035;-80
2021/12/08 06:41:41;;;;;;;6.82;2.45;;;5.00;99.90;;;5.44;100.00;98564.59;5055883;28;20124;-79
2021/12/08 06:44:25;;;;;;;8.43;2.40;;;5.00;99.90;;;5.41;100.00;98562.56;5056649;28;20112;-79
2021/12/08 06:46:54;;;;;;;6.78;2.50;;;4.90;99.90;;;5.32;100.00;98562.84;5055668;28;20227;-78
2021/12/08 06:49:22;;;;;;;7.38;2.35;;;4.80;99.90;;;5.32;100.00;98568.38;5056097;28;20025;-76
2021/12/08 06:52:04;;;;;;;7.30;3.30;;;4.80;99.90;;;5.28;100.00;98575.03;5055331;28;20061;-80
2021/12/08 06:55:08;;;;;;;6.10;2.60;;;4.80;99.90;;;5.38;100.00;98560.56;5054559;28;20373;-79
2021/12/08 06:58:26;;;;;;;5.78;2.35;;;4.90;99.90;;;5.41;100.00;98561.75;5054643;28;20065;-76
2021/12/08 07:04:29;;;;;;;8.18;2.45;;;4.90;99.90;;;5.42;100.00;98563.38;5032826;28;19944;-79
2021/12/08 07:07:16;;;;;;;6.47;2.72;;;4.90;99.90;;;5.33;100.00;98567.19;5054424;28;20033;-77
2021/12/08 07:10:19;;;;;;;9.85;2.90;;;4.90;99.90;;;5.27;100.00;98565.13;5056865;28;20025;-77
2021/12/08 07:13:03;;;;;;;5.18;2.83;;;4.80;99.90;;;5.15;100.00;98565.34;5056592;28;20025;-79
2021/12/08 07:15:55;;;;;;;5.18;2.75;;;4.80;99.90;;;5.22;100.00;98574.56;5058575;28;20029;-79
2021/12/08 07:18:38;;;;;;;6.80;3.03;;;4.80;99.90;;;5.29;100.00;98576.63;5056928;28;20033;-77
2021/12/08 07:21:12;;;;;;;10.10;3.15;;;4.80;99.90;;;5.33;100.00;98586.56;5054131;28;20393;-79
2021/12/08 07:23:57;;;;;;;7.97;2.95;;;4.90;99.90;;;5.27;100.00;98592.78;5036330;28;20087;-79
2021/12/08 07:26:30;;;;;;;6.88;3.35;;;4.80;99.90;;;5.28;100.00;98591.63;5052944;28;20037;-78
2021/12/08 07:28:58;;;;;;;6.88;3.38;;;4.80;99.90;;;5.32;100.00;98598.84;5037117;28;20025;-78
2021/12/08 07:31:37;;;;;;;7.20;3.17;;;4.90;99.90;;;5.33;100.00;98594.06;5038486;28;20057;-79
2021/12/08 07:34:08;;;;;;;10.60;3.70;;;4.90;99.90;;;5.35;100.00;98607.56;5036251;28;20122;-79
2021/12/08 07:36:40;;;;;;;6.95;2.80;;;4.90;99.90;;;5.47;100.00;98610.91;5038861;28;20029;-79
2021/12/08 07:39:21;;;;;;;4.53;2.70;;;5.00;99.90;;;5.54;100.00;98610.22;5037416;28;20030;-79
2021/12/08 07:42:06;;;;;;;6.22;2.65;;;5.00;99.90;;;5.59;100.00;98612.63;5038261;28;20034;-80
2021/12/08 07:44:33;;;;;;;5.45;2.63;;;5.10;99.90;;;5.59;100.00;98618.97;5037518;28;20125;-78
2021/12/08 07:47:10;;;;;;;6.53;2.40;;;5.10;99.90;;;5.60;100.00;98626.13;5039285;28;20068;-80
2021/12/08 07:50:32;;;;;;;10.05;3.22;;;5.10;99.90;;;5.69;100.00;98631.38;5039404;28;20021;-77
2021/12/08 07:53:01;;;;;;;5.30;2.50;;;5.10;99.90;;;5.65;100.00;98631.31;5040291;28;20022;-79
2021/12/08 07:55:39;;;;;;;8.65;2.72;;;5.20;99.90;;;5.66;100.00;98644.00;5054693;28;20049;-79
2021/12/08 07:58:09;;;;;;;6.53;2.28;;;5.20;99.90;;;5.75;100.00;98643.72;5040668;28;20032;-79
2021/12/08 08:00:49;;;;;;;4.40;1.92;;;5.20;99.90;;;5.80;100.00;98635.91;5038771;28;20396;-78
2021/12/08 08:03:19;;;;;;;6.18;2.42;;;5.30;99.90;;;5.75;100.00;98625.16;5036594;28;20029;-77
2021/12/08 08:05:49;;;;;;;6.68;1.95;;;5.30;99.90;;;5.76;100.00;98625.94;5036833;28;20583;-78
2021/12/08 08:08:21;;;;;;;8.60;3.40;;;5.20;99.90;;;5.69;100.00;98634.94;5037746;28;20386;-76
2021/12/08 08:11:41;;;;;;;6.25;1.75;;;5.20;99.90;;;5.71;100.00;98635.41;5036845;28;20045;-81
2021/12/08 08:14:10;;;;;;;5.38;1.63;;;5.30;99.90;;;5.75;100.00;98644.53;5039444;28;20481;-79
2021/12/08 08:16:40;;;;;;;9.13;2.38;;;5.30;99.90;;;5.76;100.00;98645.34;5036849;28;20167;-79
2021/12/08 08:19:16;;;;;;;8.88;2.28;;;5.30;99.90;;;5.81;100.00;98648.56;5052672;28;20037;-79
2021/12/08 08:21:50;;;;;;;8.50;2.17;;;5.40;99.90;;;5.87;100.00;98656.59;5045802;28;20523;-79
2021/12/08 08:24:19;;;;;;;5.70;2.50;;;5.40;99.90;;;5.86;100.00;98658.56;5057104;28;20037;-81
2021/12/08 08:26:54;;;;;;;5.30;1.65;;;5.30;99.90;;;5.84;100.00;98655.34;5056521;28;20029;-78
2021/12/08 08:29:20;;;;;;;5.28;1.52;;;5.40;99.90;;;5.87;100.00;98653.84;5054625;28;20079;-78
2021/12/08 08:32:08;;;;;;;6.28;1.77;;;5.40;99.90;;;5.89;100.00;98645.94;5055165;28;20480;-79
2021/12/08 08:34:41;;;;;;;7.65;2.13;;;5.40;99.90;;;5.92;100.00;98643.22;5071222;28;20063;-77
2021/12/08 08:37:14;;;;;;;5.75;1.52;;;5.40;99.90;;;5.89;100.00;98654.25;5056728;28;20043;-79
2021/12/08 08:40:00;;;;;;;5.95;1.60;;;5.40;99.90;;;5.95;100.00;98656.31;5055379;28;20558;-78
2021/12/08 08:42:36;;;;;;;;;;;5.40;99.90;;;6.01;100.00;98657.56;5070392;28;20056;-78
2021/12/08 08:45:22;;;;;;;7.18;1.70;;;5.40;99.90;;;6.02;100.00;98653.63;5056554;28;19912;-78
2021/12/08 08:47:58;;;;;;;8.27;2.05;;;5.50;99.90;;;6.00;100.00;98658.78;5056437;28;20492;-78
2021/12/08 08:50:41;;;;;;;5.22;2.00;;;5.50;99.90;;;6.05;100.00;98663.97;5057948;28;20041;-78
2021/12/08 08:53:09;;;;;;;7.35;1.98;;;5.60;99.90;;;6.10;100.00;98660.84;5056193;28;20024;-79
2021/12/08 08:56:00;;;;;;;7.43;2.03;;;5.60;99.90;;;6.12;100.00;98654.94;5057041;28;20025;-78
2021/12/08 08:58:31;;;;;;;7.25;1.80;;;5.60;99.90;;;6.08;100.00;98657.69;5057279;28;20488;-78
2021/12/08 09:01:20;;;;;;;4.25;2.30;;;5.60;99.90;;;6.10;100.00;98663.63;5058319;28;20463;-79
2021/12/08 09:04:30;;;;;;;5.25;2.15;;;5.60;99.90;;;6.12;100.00;98675.16;5058005;28;20492;-78
2021/12/08 09:07:09;;;;;;;4.65;2.10;;;5.70;99.90;;;6.18;100.00;98678.38;5059694;28;20467;-79
2021/12/08 09:09:46;;;;;;;6.43;2.05;;;5.70;99.90;;;6.20;100.00;98668.50;5058101;28;20083;-79
2021/12/08 09:12:45;;;;;;;7.50;1.52;;;5.70;99.90;;;6.33;100.00;98671.84;5058035;28;20484;-78
2021/12/08 09:15:30;;;;;;;6.82;2.30;;;5.80;99.90;;;6.37;100.00;98672.69;5057778;28;20044;-78
2021/12/08 09:18:33;;;;;;;7.38;2.13;;;5.80;99.90;;;6.44;100.00;98681.09;5056259;28;20029;-78
2021/12/08 09:21:58;;;;;;;9.85;1.83;;;5.90;99.90;;;6.46;100.00;98680.69;5056024;28;20087;-79
2021/12/08 09:24:48;;;;;;;8.13;1.90;;;5.90;99.90;;;6.45;100.00;98691.03;5038698;28;20420;-76
2021/12/08 09:27:43;;;;;;;12.00;2.67;;;6.00;99.90;;;6.56;99.94;98685.56;5036857;28;20029;-78
2021/12/08 09:30:43;;;;;;;5.28;1.92;;;6.00;99.90;;;6.61;99.03;98682.47;5038022;28;20081;-78
2021/12/08 09:33:27;;;;;;;11.70;2.05;;;6.00;99.90;;;6.61;99.38;98686.06;5038666;28;20040;-78
2021/12/08 09:36:07;;;;;;;13.68;2.67;;;6.00;99.90;;;6.69;98.69;98692.47;5040193;28;20431;-79
2021/12/08 09:38:57;;;;;;;4.32;1.85;;;6.10;99.90;;;6.73;97.81;98707.19;5040031;28;20084;-79
2021/12/08 09:41:37;;;;;;;6.80;2.08;;;6.20;99.90;;;6.73;97.69;98704.41;5039382;28;20032;-78
2021/12/08 09:44:29;;;;;;;9.05;2.10;;;6.20;99.90;;;6.72;98.04;98708.34;5040804;28;20025;-78
2021/12/08 09:46:57;;;;;;;6.95;2.05;;;6.20;99.90;;;6.74;97.04;98714.34;5039591;28;20068;-79
2021/12/08 09:49:26;;;;;;;4.88;1.65;;;6.30;99.90;;;6.71;97.12;98702.00;5039733;28;20033;-78
2021/12/08 09:52:00;;;;;;;11.77;2.28;;;6.30;99.90;;;6.66;97.78;98705.13;5040544;28;20029;-79
2021/12/08 09:54:27;;;;;;;7.47;1.63;;;6.20;99.90;;;6.76;97.02;98698.09;5040958;28;20025;-79
2021/12/08 09:56:54;;;;;;;8.82;1.67;;;6.20;99.90;;;6.74;96.09;98692.91;5039563;28;20025;-80
2021/12/08 09:59:23;;;;;;;6.30;1.77;;;6.30;99.90;;;6.83;95.76;98696.22;5056900;28;20344;-78
2021/12/08 10:02:02;;;;;;;8.40;1.85;;;6.30;99.90;;;6.95;95.62;98695.13;5043012;28;20057;-79
2021/12/08 10:04:27;;;;;;;8.38;1.65;;;6.40;99.90;;;7.05;95.23;98685.31;5048334;28;20030;-78
2021/12/08 10:07:00;;;;;;;8.65;1.90;;;6.50;99.90;;;7.07;94.26;98694.03;5041600;28;20037;-79
2021/12/08 10:09:26;;;;;;;6.07;1.90;;;6.50;99.90;;;7.14;94.28;98696.88;5039296;28;20494;-79
2021/12/08 10:11:54;;;;;;;6.80;2.15;;;6.60;99.90;;;7.22;94.45;98704.94;5039552;28;20032;-78
2021/12/08 10:14:22;;;;;;;5.22;1.65;;;6.60;99.90;;;7.16;94.12;98708.44;5040798;28;20049;-80
2021/12/08 10:16:57;;;;;;;8.95;1.40;;;6.60;99.90;;;7.16;93.68;98708.44;5039439;28;20504;-78
2021/12/08 10:19:23;;;;;;;11.82;1.60;;;6.70;99.90;;;7.21;94.12;98714.44;5040873;28;20682;-78
2021/12/08 10:21:50;;;;;;;11.05;2.28;;;6.70;99.90;;;7.38;93.13;98724.09;5057608;28;20051;-77
2021/12/08 10:24:30;;;;;;;9.70;1.80;;;6.70;99.90;;;7.30;93.03;98728.78;5069045;28;20036;-77
2021/12/08 10:27:08;;;;;;;7.50;1.40;;;6.70;99.90;;;7.27;92.43;98732.31;5062297;28;20029;-79
2021/12/08 10:29:35;;;;;;;6.97;1.73;;;6.80;99.90;;;7.34;92.61;98728.81;5060163;28;20506;-77
2021/12/08 10:32:04;;;;;;;4.47;1.50;;;6.80;99.90;;;7.36;92.03;98730.03;5059303;28;20104;-79
2021/12/08 10:34:47;;;;;;;11.70;2.78;;;6.80;99.90;;;7.29;92.92;98729.94;5059327;28;20029;-79
2021/12/08 10:37:20;;;;;;;8.80;1.55;;;6.80;99.90;;;7.31;92.28;98726.81;5058658;28;20112;-75
2021/12/08 10:40:00;;;;;;;7.07;1.60;;;6.80;99.90;;;7.28;91.85;98733.13;5057563;28;20076;-79
2021/12/08 10:42:32;;;;;;;7.80;1.67;;;6.80;99.90;;;7.32;92.16;98717.31;5058277;28;20495;-79
2021/12/08 10:45:10;;;;;;;10.27;2.15;;;6.80;99.90;;;7.20;92.43;98728.66;5055565;28;20039;-79
2021/12/08 10:47:58;;;;;;;10.88;2.15;;;6.80;99.90;;;7.13;92.74;98743.28;5058450;28;20079;-80
2021/12/08 10:56:20;;;;;;;10.30;2.20;;;6.80;99.90;;;7.28;92.36;98731.16;5056444;28;20117;-78
2021/12/08 10:58:50;;;;;;;5.97;1.50;;;6.80;99.90;;;7.32;92.14;98731.19;5056317;28;20063;-80
2021/12/08 11:01:24;;;;;;;7.22;1.63;;;6.80;99.90;;;7.43;92.08;98734.84;5054821;28;20048;-80
2021/12/08 11:04:12;;;;;;;11.75;1.85;;;6.80;99.90;;;7.45;91.55;98726.16;5054147;28;20047;-78
2021/12/08 11:06:39;;;;;;;8.95;1.80;;;6.90;99.90;;;7.31;91.88;98718.47;5055739;28;20047;-79
2021/12/08 11:09:21;;;;;;;6.85;1.67;;;6.90;99.90;;;7.28;92.27;98725.59;5056373;28;20439;-80
2021/12/08 11:11:48;;;;;;;7.00;2.15;;;6.90;99.90;;;7.35;91.27;98725.66;5056587;28;20048;-80
2021/12/08 11:14:17;;;;;;;7.20;1.67;;;6.90;99.90;;;7.32;91.96;98728.41;5071250;28;20072;-80
2021/12/08 11:16:44;;;;;;;5.15;2.05;;;6.90;99.90;;;7.31;92.23;98715.69;5056759;28;20036;-77
2021/12/08 11:19:22;;;;;;;4.72;1.70;;;6.90;99.90;;;7.30;91.28;98720.44;5056844;28;20057;-80
2021/12/08 11:21:57;;;;;;;10.02;1.90;;;6.90;99.90;;;7.46;91.54;98709.09;5054622;28;20033;-77
2021/12/08 11:24:44;;;;;;;8.40;1.88;;;6.90;99.90;;;7.29;91.83;98715.25;5054519;28;20032;-77
2021/12/08 11:27:34;;;;;;;4.47;1.50;;;6.90;99.90;;;7.43;91.66;98710.66;5053945;28;20037;-77
2021/12/08 11:30:16;;;;;;;7.50;2.00;;;6.90;99.90;;;7.49;91.60;98729.72;5053706;28;20021;-78
2021/12/08 11:32:44;;;;;;;5.78;1.60;;;7.00;99.90;;;7.45;91.81;98737.25;5053661;28;20036;-78
2021/12/08 11:35:21;;;;;;;8.10;2.00;;;7.00;99.90;;;7.39;91.86;98742.34;5070140;28;20025;-78
2021/12/08 11:38:00;;;;;;;9.02;1.80;;;7.00;99.90;;;7.48;90.33;98742.81;5054579;28;20075;-79
2021/12/08 11:40:26;;;;;;;8.07;2.45;;;7.00;99.90;;;7.55;91.14;98747.63;5054094;28;20029;-79
2021/12/08 11:42:52;;;;;;;7.13;2.33;;;7.00;99.90;;;7.38;91.52;98735.97;5054152;28;20470;-80
2021/12/08 11:45:21;;;;;;;10.23;1.60;;;7.00;99.90;;;7.38;91.28;98741.53;5078158;28;20048;-78